Thorp, WI (54771)

4:54 AM CDT on July 26, 2017 (GMT -0500)
N Gilman Dr | | Change Station

Elev 1237 ft 45.17 °N, 90.82 °W | Updated 3 minutes ago

Partly Cloudy
Partly Cloudy
62.4 °F
Feels Like 62.4 °F
N
4.1
Wind Variable Wind from South
Gusts 6.0 mph

Today
High -- | Low -- °F
--% Chance of Precip.
Yesterday
High -- | Low -- °F
Precip. -- in
Pressure 30.00 in
Visibility 7.0 miles
Clouds Mostly Cloudy 500 ft
Mostly Cloudy 2000 ft
Dew Point 53 °F
Humidity 71%
Rainfall 0.18 in
Snow Depth Not available.
5:42 AM 8:36 PM
Waxing Crescent, 12% visible
METAR KMDZ 260935Z AUTO 18006KT 7SM BKN005 BKN020 19/19 A3000 RMK AO2 T01920187
Pressure 30.00 in
Visibility 7.0 miles
Clouds Mostly Cloudy 500 ft
Mostly Cloudy 2000 ft
Dew Point 53 °F
Humidity 71%
Rainfall 0.18 in
Snow Depth Not available.
5:42 AM 8:36 PM
Waxing Crescent, 12% visible
METAR KMDZ 260935Z AUTO 18006KT 7SM BKN005 BKN020 19/19 A3000 RMK AO2 T01920187

Get Severe Weather Alerts

Thanks for signing up!

Be on the lookout for a verification email in your inbox.

You'll start receiving the daily forecast at 6 AM.

×

10-Day Weather Forecast

Almanac

Astronomy

Jul. 26, 2017 Rise Set
Actual Time
Civil Twilight
Nautical Twilight
Astronomical Twilight
Moon
Length of Visible Light
Length of Day
Tomorrow will be .
, % of the Moon is Illuminated

Today's Extremes

State Highs State Lows

Community

WunderPhotos

Category 6

Welcome to Category 6. This is the collective home for Weather Underground's featured writeups by Dr. Jeff Masters (right), Bob Henson (left), Chris Burt, and other regular contributors.

Nearby

Air Quality

  Air Quality AQ Index Pollutant
Not available.

Snow Depth

Station Depth Elevation

Earthquake Activity

City Distance Mag. Time & Date
Minimum magnitude displayed is 2.5.

Coastal Water Temperatures

Place Temperature

Stations

Nearby Weather Stations

Station Location Temp. Windchill Dew Point Humidity Wind Precip. Elev Updated Type
                   

Watches & Warnings

There are currently no watches in effect.